Time;durP1;ratioP1;P1;durP2;ratioP2;P2;SDS_P1;SDS_P2;PMS_P1;PMS_P2;Temp;Humidity;BMP_temperature;BMP_pressure;BME280_temperature;BME280_humidity;BME280_pressure;Samples;Min_cycle;Max_cycle;Signal;HPM_P1;HPM_P2
2023/01/30 00:00:54;;;;;;;;;31.75;25.50;;;;;6.21;67.02;101957.06;6271439;22;45650;-75
2023/01/30 00:03:20;;;;;;;;;28.25;21.00;;;;;6.19;66.98;101943.25;6270516;22;46959;-75
2023/01/30 00:05:46;;;;;;;;;31.75;24.75;;;;;6.20;67.28;101952.78;6271158;22;46158;-75
2023/01/30 00:08:11;;;;;;;;;34.00;27.25;;;;;6.20;67.18;101956.22;6243847;22;45714;-74
2023/01/30 00:10:37;;;;;;;;;26.75;22.25;;;;;6.22;67.73;101959.63;6242740;22;47342;-74
2023/01/30 00:13:02;;;;;;;;;31.75;20.75;;;;;6.22;67.11;101957.00;6242936;22;48284;-77
2023/01/30 00:18:49;;;;;;;;;18.75;14.75;;;;;6.27;67.35;101947.31;6265416;22;45696;-74
2023/01/30 00:21:15;;;;;;;;;30.25;26.75;;;;;6.30;67.22;101942.03;6270957;22;47316;-75
2023/01/30 00:23:41;;;;;;;;;28.50;22.75;;;;;6.30;66.94;101933.38;6270796;22;46077;-75
2023/01/30 00:26:07;;;;;;;;;30.25;21.00;;;;;6.36;67.16;101932.31;6270923;22;45541;-75
2023/01/30 00:28:33;;;;;;;;;30.50;24.00;;;;;6.37;67.20;101931.41;6271706;22;45614;-77
2023/01/30 00:30:58;;;;;;;;;29.50;23.50;;;;;6.40;67.04;101923.50;6243055;22;48534;-75
2023/01/30 00:33:26;;;;;;;;;25.50;20.25;;;;;6.40;67.27;101921.75;6243431;22;47171;-77
2023/01/30 00:35:53;;;;;;;;;26.25;24.00;;;;;6.39;66.89;101922.66;6271029;22;45839;-77
2023/01/30 00:38:19;;;;;;;;;33.50;26.00;;;;;6.40;66.98;101911.34;6271671;22;45439;-75
2023/01/30 00:40:45;;;;;;;;;26.75;23.00;;;;;6.41;66.92;101906.97;6271175;22;46591;-75
2023/01/30 00:49:19;;;;;;;;;32.00;27.00;;;;;6.40;66.70;101900.06;6271316;22;45586;-76
2023/01/30 00:51:44;;;;;;;;;34.50;26.50;;;;;6.40;66.83;101890.53;6270261;22;47453;-74
2023/01/30 00:54:10;;;;;;;;;28.25;20.75;;;;;6.43;66.62;101889.53;6243304;22;45911;-75
2023/01/30 00:56:35;;;;;;;;;24.00;22.50;;;;;6.39;66.85;101882.75;6269113;22;45550;-75
2023/01/30 00:59:01;;;;;;;;;26.50;22.75;;;;;6.36;66.76;101869.84;6271142;22;45469;-75
2023/01/30 01:01:26;;;;;;;;;20.25;17.25;;;;;6.43;66.91;101880.00;6270411;22;46580;-74
2023/01/30 01:03:51;;;;;;;;;25.00;22.00;;;;;6.35;66.75;101852.53;6270468;22;45641;-73
2023/01/30 01:06:17;;;;;;;;;25.75;23.00;;;;;6.42;66.65;101875.72;6271257;22;45945;-76
2023/01/30 01:08:42;;;;;;;;;23.00;21.75;;;;;6.41;66.86;101873.16;6271023;22;45467;-75
2023/01/30 01:11:07;;;;;;;;;26.75;22.75;;;;;6.41;66.71;101867.94;6270366;22;46264;-74
2023/01/30 01:13:33;;;;;;;;;27.25;20.75;;;;;6.38;66.80;101863.69;6270069;22;46728;-74
2023/01/30 01:19:20;;;;;;;;;32.25;24.00;;;;;6.39;67.09;101862.78;6267676;22;46446;-75
2023/01/30 01:21:46;;;;;;;;;28.75;23.75;;;;;6.37;66.70;101855.94;6271432;22;45609;-75
2023/01/30 01:24:13;;;;;;;;;21.25;20.25;;;;;6.41;66.91;101854.94;6243790;22;46510;-75
2023/01/30 01:26:40;;;;;;;;;28.75;24.00;;;;;6.42;66.57;101846.22;6272080;22;45574;-76
2023/01/30 01:29:07;;;;;;;;;23.25;19.25;;;;;6.43;66.60;101850.50;6244502;22;45516;-75
2023/01/30 01:34:54;;;;;;;;;18.50;17.75;;;;;6.44;66.81;101837.44;6272182;22;46238;-75
2023/01/30 01:37:19;;;;;;;;;26.50;24.00;;;;;6.44;66.50;101837.44;6272004;22;45484;-76
2023/01/30 01:42:33;;;;;;;;;25.50;20.75;;;;;6.43;66.58;101845.31;6271738;22;46117;-75
2023/01/30 01:45:08;;;;;;;;;25.00;23.25;;;;;6.39;66.72;101848.91;6272403;22;46004;-75
2023/01/30 01:47:34;;;;;;;;;26.75;23.75;;;;;6.32;66.78;101840.47;6272042;22;45847;-76
2023/01/30 01:50:02;;;;;;;;;26.25;22.75;;;;;6.30;66.76;101842.28;6271612;22;45622;-76
2023/01/30 01:52:28;;;;;;;;;27.25;25.50;;;;;6.27;66.92;101831.97;6272301;22;45443;-74
2023/01/30 01:55:00;;;;;;;;;36.25;26.75;;;;;6.25;67.04;101841.59;6272697;22;45560;-75
2023/01/30 01:57:42;;;;;;;;;23.75;20.25;;;;;6.16;67.17;101824.50;6272100;22;45611;-76
2023/01/30 02:00:12;;;;;;;;;25.25;23.00;;;;;6.17;66.84;101839.22;6271728;22;45717;-74
2023/01/30 02:02:43;;;;;;;;;31.00;26.50;;;;;6.17;67.05;101833.16;6272607;22;46591;-75
2023/01/30 02:05:10;;;;;;;;;23.75;23.75;;;;;6.13;67.12;101837.63;6272173;22;46173;-74
2023/01/30 02:07:44;;;;;;;;;25.00;22.25;;;;;6.09;67.01;101829.97;6271895;22;45568;-77
2023/01/30 02:10:16;;;;;;;;;22.50;18.75;;;;;6.11;67.17;101838.56;6244514;22;45861;-76
2023/01/30 02:12:44;;;;;;;;;27.00;21.75;;;;;6.07;67.35;101836.97;6272385;22;45543;-74
2023/01/30 02:15:09;;;;;;;;;23.50;21.75;;;;;6.06;67.05;101849.13;6272315;22;46069;-77
2023/01/30 02:17:35;;;;;;;;;29.00;24.00;;;;;6.06;67.39;101833.53;6272964;22;45622;-77
2023/01/30 02:20:22;;;;;;;;;27.00;23.25;;;;;6.12;66.91;101837.69;6264483;22;45490;-76
2023/01/30 02:22:53;;;;;;;;;28.00;22.25;;;;;6.14;67.09;101839.34;6271836;22;46772;-74
2023/01/30 02:25:21;;;;;;;;;22.75;18.00;;;;;6.15;67.08;101841.03;6271270;22;46887;-74
2023/01/30 02:28:02;;;;;;;;;21.00;18.00;;;;;6.16;67.24;101826.25;6271645;22;45641;-75
2023/01/30 02:30:49;;;;;;;;;26.50;24.25;;;;;6.17;67.00;101821.00;6271761;22;45923;-75
2023/01/30 02:33:23;;;;;;;;;25.75;22.25;;;;;6.20;67.27;101815.72;6271541;22;46563;-75
2023/01/30 02:35:58;;;;;;;;;26.75;22.50;;;;;6.24;67.01;101822.53;6271672;22;47326;-75
2023/01/30 02:38:40;;;;;;;;;4.00;0.00;;;;;6.24;66.85;101830.31;6272454;22;45927;-76
2023/01/30 02:41:39;;;;;;;;;22.75;17.75;;;;;6.24;67.19;101812.09;6272565;22;45812;-76
2023/01/30 02:44:22;;;;;;;;;27.25;23.25;;;;;6.23;66.85;101823.41;6272148;22;45718;-76
2023/01/30 02:46:56;;;;;;;;;26.75;22.75;;;;;6.21;66.85;101812.19;6272551;22;46288;-74
2023/01/30 02:49:24;;;;;;;;;24.50;23.00;;;;;6.28;66.78;101811.09;6271094;22;45910;-77
2023/01/30 02:51:51;;;;;;;;;24.75;20.75;;;;;6.33;66.68;101821.34;6272418;22;45520;-75
2023/01/30 02:54:16;;;;;;;;;25.25;21.50;;;;;6.28;67.03;101824.09;6272170;22;46632;-75
2023/01/30 02:56:53;;;;;;;;;28.00;24.00;;;;;6.32;67.03;101836.09;6271454;22;46212;-75
2023/01/30 02:59:38;;;;;;;;;27.25;24.50;;;;;6.33;66.81;101848.22;6271171;22;45489;-75
2023/01/30 03:02:27;;;;;;;;;31.25;25.50;;;;;6.25;67.07;101825.97;6272747;22;45678;-77
2023/01/30 03:05:19;;;;;;;;;23.75;18.25;;;;;6.25;67.07;101839.84;6272135;22;46175;-77
2023/01/30 03:07:54;;;;;;;;;24.50;22.00;;;;;6.21;66.77;101829.56;6271323;22;45728;-77
2023/01/30 03:10:36;;;;;;;;;28.75;24.75;;;;;6.19;66.95;101839.19;6269822;22;45917;-73
2023/01/30 03:13:15;;;;;;;;;26.00;22.00;;;;;6.19;66.97;101828.78;6272841;22;45617;-76
2023/01/30 03:19:05;;;;;;;;;21.25;15.00;;;;;6.17;67.10;101827.97;6271154;22;45735;-76
2023/01/30 03:21:30;;;;;;;;;24.75;20.25;;;;;6.14;67.02;101836.75;6271796;22;45541;-76
2023/01/30 03:23:56;;;;;;;;;30.50;23.25;;;;;6.07;67.29;101834.38;6272413;22;45489;-75
2023/01/30 03:26:26;;;;;;;;;23.75;22.75;;;;;6.07;67.93;101836.97;6272076;22;46486;-75
2023/01/30 03:28:52;;;;;;;;;25.25;19.75;;;;;6.05;68.37;101833.56;6243837;22;46972;-76
2023/01/30 03:34:39;;;;;;;;;30.00;24.75;;;;;6.03;68.73;101836.25;6272011;22;45650;-77
2023/01/30 03:37:05;;;;;;;;;26.50;15.75;;;;;6.01;68.34;101827.63;6272096;22;45522;-77
2023/01/30 03:39:30;;;;;;;;;27.25;23.00;;;;;5.99;68.59;101811.25;6271622;22;46445;-77
2023/01/30 03:41:55;;;;;;;;;26.75;22.50;;;;;6.03;68.79;101811.97;6243888;22;46149;-76
2023/01/30 03:44:21;;;;;;;;;24.25;21.75;;;;;6.09;68.77;101833.44;6244017;22;45701;-76
2023/01/30 03:50:09;;;;;;;;;24.25;22.25;;;;;6.11;69.03;101816.00;6271789;22;45712;-76
2023/01/30 03:52:35;;;;;;;;;25.00;18.50;;;;;6.15;68.67;101814.19;6271321;22;45945;-78
2023/01/30 03:55:01;;;;;;;;;23.00;20.75;;;;;6.11;69.23;101799.53;6271860;22;45691;-76
2023/01/30 03:57:26;;;;;;;;;33.50;20.25;;;;;6.21;68.98;101803.53;6271717;22;45409;-75
2023/01/30 03:59:52;;;;;;;;;24.00;21.00;;;;;6.19;69.08;101795.81;6271572;22;46503;-77
2023/01/30 04:05:41;;;;;;;;;19.50;18.50;;;;;6.29;68.77;101798.94;6272291;22;45539;-76
2023/01/30 04:08:07;;;;;;;;;24.50;22.25;;;;;6.29;68.96;101791.13;6271711;22;46610;-76
2023/01/30 04:10:32;;;;;;;;;23.00;19.75;;;;;6.33;68.71;101796.16;6270632;22;47071;-76
2023/01/30 04:12:57;;;;;;;;;27.50;23.75;;;;;6.30;68.68;101780.69;6271201;22;45558;-76
2023/01/30 04:15:23;;;;;;;;;19.75;12.75;;;;;6.30;69.05;101783.28;6271544;22;45583;-76
2023/01/30 04:21:36;;;;;;;;;19.50;16.75;;;;;6.26;68.95;101791.25;6266996;22;46121;-77
2023/01/30 04:24:02;;;;;;;;;26.25;21.25;;;;;6.23;69.28;101783.53;6270666;22;46034;-77
2023/01/30 04:26:27;;;;;;;;;24.75;22.00;;;;;6.20;68.97;101778.44;6271068;22;45482;-77
2023/01/30 04:28:53;;;;;;;;;22.50;19.50;;;;;6.30;68.93;101788.47;6270714;22;47089;-76
2023/01/30 04:31:18;;;;;;;;;24.25;19.75;;;;;6.31;69.24;101790.19;6271061;22;46887;-75
2023/01/30 04:37:05;;;;;;;;;17.75;14.75;;;;;6.26;69.06;101762.63;6271809;22;45586;-76
2023/01/30 04:39:31;;;;;;;;;31.75;21.25;;;;;6.29;69.11;101770.31;6272492;22;46680;-77
2023/01/30 04:41:56;;;;;;;;;24.50;21.50;;;;;6.29;69.35;101771.16;6272762;22;45608;-77
2023/01/30 04:44:21;;;;;;;;;27.00;22.00;;;;;6.27;69.36;101759.94;6273560;22;45461;-73
2023/01/30 04:46:46;;;;;;;;;23.00;20.50;;;;;6.28;69.29;101761.66;6271355;22;45766;-77
2023/01/30 04:52:33;;;;;;;;;22.00;20.75;;;;;6.30;69.07;101777.22;6271545;22;45599;-76
2023/01/30 04:54:59;;;;;;;;;14.75;12.50;;;;;6.28;69.23;101773.81;6271851;22;45597;-75
2023/01/30 04:57:24;;;;;;;;;22.75;21.25;;;;;6.25;69.37;101763.53;6272576;22;45639;-75
2023/01/30 04:59:49;;;;;;;;;25.75;22.50;;;;;6.29;69.57;101776.38;6272486;22;45393;-74
2023/01/30 05:02:15;;;;;;;;;24.25;18.50;;;;;6.29;69.34;101778.13;6272486;22;45687;-77
2023/01/30 05:04:40;;;;;;;;;24.00;21.00;;;;;6.33;69.35;101771.91;6271982;22;45427;-77
2023/01/30 05:07:05;;;;;;;;;21.25;17.00;;;;;6.28;69.58;101768.59;6245252;22;45840;-78
2023/01/30 05:09:31;;;;;;;;;21.25;19.00;;;;;6.30;69.56;101765.06;6271517;22;47319;-76
2023/01/30 05:11:56;;;;;;;;;23.75;21.75;;;;;6.35;69.65;101770.09;6271777;22;47226;-78
2023/01/30 05:14:21;;;;;;;;;23.75;18.25;;;;;6.39;69.50;101771.69;6244922;22;45532;-76
2023/01/30 05:16:46;;;;;;;;;24.25;19.00;;;;;6.42;69.44;101775.94;6272408;22;45574;-76
2023/01/30 05:22:34;;;;;;;;;24.75;22.50;;;;;6.43;69.38;101770.66;6266363;22;46029;-76
2023/01/30 05:24:59;;;;;;;;;24.50;20.00;;;;;6.49;69.49;101778.25;6271847;22;45378;-75
2023/01/30 05:27:26;;;;;;;;;28.75;24.75;;;;;6.50;70.08;101769.56;6271866;22;45373;-77
2023/01/30 05:29:51;;;;;;;;;27.75;24.25;;;;;6.51;69.90;101765.22;6271668;22;46520;-75
2023/01/30 05:32:18;;;;;;;;;20.50;19.50;;;;;6.54;69.48;101758.13;6272373;22;45578;-74
2023/01/30 05:38:04;;;;;;;;;22.75;18.00;;;;;6.57;69.70;101758.03;6272628;22;45552;-73
2023/01/30 05:40:30;;;;;;;;;24.00;20.75;;;;;6.59;69.61;101755.34;6271653;22;46429;-74
2023/01/30 05:42:55;;;;;;;;;25.50;22.50;;;;;6.62;70.00;101756.13;6244685;22;47130;-75
2023/01/30 05:45:20;;;;;;;;;21.25;19.50;;;;;6.60;69.65;101754.44;6271454;22;45445;-77
2023/01/30 05:47:50;;;;;;;;;19.75;19.75;;;;;6.62;69.58;101753.50;6272521;22;45386;-75
2023/01/30 05:50:16;;;;;;;;;22.25;17.75;;;;;6.62;69.60;101737.03;6272642;22;45813;-75
2023/01/30 05:52:41;;;;;;;;;24.00;19.75;;;;;6.65;69.78;101753.38;6272205;22;46203;-75
2023/01/30 05:55:07;;;;;;;;;21.75;20.00;;;;;6.63;69.62;101749.16;6272450;22;45584;-74
2023/01/30 05:57:32;;;;;;;;;21.00;16.00;;;;;6.62;69.63;101763.91;6270254;22;45503;-73
2023/01/30 05:59:57;;;;;;;;;16.25;15.75;;;;;6.61;69.80;101751.81;6272384;22;45440;-75
2023/01/30 06:02:23;;;;;;;;;24.00;20.75;;;;;6.58;70.15;101749.31;6271578;22;45989;-74
2023/01/30 06:08:10;;;;;;;;;26.50;19.25;;;;;6.57;70.56;101736.34;6273246;22;45614;-78
2023/01/30 06:10:36;;;;;;;;;19.25;18.25;;;;;6.63;70.73;101749.16;6272039;22;46404;-77
2023/01/30 06:13:01;;;;;;;;;20.75;19.75;;;;;6.63;70.83;101744.78;6272983;22;45851;-74
2023/01/30 06:15:27;;;;;;;;;25.00;22.25;;;;;6.64;70.68;101753.47;6271602;22;45681;-76
2023/01/30 06:17:52;;;;;;;;;23.75;20.00;;;;;6.52;70.90;101723.50;6272163;22;45861;-76
2023/01/30 06:23:40;;;;;;;;;21.25;19.00;;;;;6.62;70.56;101717.06;6266102;22;45650;-75
2023/01/30 06:26:06;;;;;;;;;19.75;18.50;;;;;6.67;71.08;101728.16;6271219;22;45772;-75
2023/01/30 06:28:31;;;;;;;;;21.25;19.75;;;;;6.66;70.81;101725.59;6272093;22;45602;-75
2023/01/30 06:30:57;;;;;;;;;20.25;19.00;;;;;6.69;71.22;101722.88;6271781;22;46839;-76
2023/01/30 06:33:24;;;;;;;;;26.25;18.75;;;;;6.71;71.05;101731.47;6270329;22;45468;-74
2023/01/30 06:35:50;;;;;;;;;16.00;13.75;;;;;6.71;70.96;101736.69;6271776;22;45480;-74
2023/01/30 06:38:16;;;;;;;;;19.50;16.00;;;;;6.66;70.81;101743.81;6271346;22;45766;-75
2023/01/30 06:40:47;;;;;;;;;21.75;16.50;;;;;6.58;71.40;101743.25;6243675;22;47316;-75
2023/01/30 06:43:13;;;;;;;;;16.00;14.75;;;;;6.57;71.50;101738.97;6244284;22;45990;-76
2023/01/30 06:45:38;;;;;;;;;23.00;17.00;;;;;6.64;71.76;101753.47;6272313;22;45508;-72
2023/01/30 06:48:04;;;;;;;;;19.50;17.00;;;;;6.63;71.71;101750.00;6272372;22;45603;-73
2023/01/30 06:53:50;;;;;;;;;20.25;13.00;;;;;6.57;71.95;101778.84;6271318;22;46107;-73
2023/01/30 06:56:16;;;;;;;;;20.50;18.25;;;;;6.53;71.81;101777.25;6271826;22;45654;-71
2023/01/30 06:58:42;;;;;;;;;16.75;15.75;;;;;6.59;72.02;101786.59;6271427;22;45452;-71
2023/01/30 07:01:07;;;;;;;;;21.25;18.50;;;;;6.61;72.26;101783.03;6243423;22;46753;-70
2023/01/30 07:03:32;;;;;;;;;24.00;22.50;;;;;6.64;72.15;101784.69;6244175;22;45580;-74
2023/01/30 07:09:19;;;;;;;;;24.25;20.00;;;;;6.72;72.35;101790.47;6271590;22;45666;-72
2023/01/30 07:11:46;;;;;;;;;19.50;16.50;;;;;6.71;72.50;101791.38;6271909;22;45558;-73
2023/01/30 07:14:12;;;;;;;;;17.75;17.00;;;;;6.78;72.18;101802.41;6243490;22;46012;-74
2023/01/30 07:16:37;;;;;;;;;16.50;12.50;;;;;6.79;72.69;101799.78;6243904;22;45637;-74
2023/01/30 07:19:02;;;;;;;;;23.00;19.75;;;;;6.81;72.20;101800.53;6271684;22;45714;-74
2023/01/30 07:21:28;;;;;;;;;16.00;15.75;;;;;6.81;72.40;101792.72;6243705;22;45517;-74
2023/01/30 07:23:53;;;;;;;;;19.50;17.25;;;;;6.82;72.65;101799.66;6270846;22;46776;-73
2023/01/30 07:26:18;;;;;;;;;23.75;16.25;;;;;6.86;72.62;101806.44;6244063;22;45961;-71
2023/01/30 07:28:44;;;;;;;;;21.25;19.25;;;;;6.88;72.77;101809.84;6270402;22;45753;-73
2023/01/30 07:31:09;;;;;;;;;17.25;15.75;;;;;6.91;72.63;101819.31;6271066;22;46262;-72
2023/01/30 07:33:34;;;;;;;;;20.00;16.25;;;;;6.94;72.67;101825.25;6243564;22;47093;-74
2023/01/30 07:39:21;;;;;;;;;21.00;17.25;;;;;6.95;72.51;101826.09;6272763;22;45640;-71
2023/01/30 07:41:47;;;;;;;;;20.25;16.75;;;;;6.94;72.82;101832.22;6271937;22;46306;-70
2023/01/30 07:44:12;;;;;;;;;21.50;19.00;;;;;6.92;73.11;101818.38;6270603;22;45951;-71
2023/01/30 07:46:38;;;;;;;;;21.75;18.50;;;;;6.97;73.10;101822.53;6271163;22;45524;-72
2023/01/30 07:49:05;;;;;;;;;16.75;13.00;;;;;6.95;73.21;101815.69;6271080;22;45431;-71
2023/01/30 07:54:52;;;;;;;;;15.25;13.50;;;;;6.91;73.63;101820.13;6271362;22;45634;-71
2023/01/30 07:57:17;;;;;;;;;17.50;14.25;;;;;6.92;74.10;101824.44;6272038;22;45473;-70
2023/01/30 07:59:43;;;;;;;;;19.25;18.50;;;;;6.91;74.08;101827.94;6271308;22;45513;-73
2023/01/30 08:02:09;;;;;;;;;18.00;12.00;;;;;6.90;73.85;101830.63;6271044;22;46184;-74
2023/01/30 08:04:35;;;;;;;;;20.75;18.50;;;;;6.86;74.57;101809.03;6270824;22;46085;-73
2023/01/30 08:10:23;;;;;;;;;20.75;13.75;;;;;6.92;74.38;101826.19;6271321;22;45501;-74
2023/01/30 08:12:51;;;;;;;;;16.75;15.00;;;;;6.88;74.41;101817.66;6271802;22;45411;-74
2023/01/30 08:15:17;;;;;;;;;25.75;18.75;;;;;6.93;74.28;101820.09;6243464;22;47033;-75
2023/01/30 08:17:42;;;;;;;;;12.25;12.00;;;;;6.98;74.29;101818.16;6271238;22;45659;-72
2023/01/30 08:20:09;;;;;;;;;20.25;16.25;;;;;6.97;74.14;101824.28;6271112;22;45884;-74
2023/01/30 08:22:34;;;;;;;;;24.00;17.50;;;;;7.02;74.30;101822.34;6243745;22;46744;-73
2023/01/30 08:24:59;;;;;;;;;21.00;16.25;;;;;7.05;74.19;101825.72;6271020;22;45966;-71
2023/01/30 08:27:25;;;;;;;;;17.75;16.50;;;;;7.07;73.96;101823.88;6271263;22;45573;-72
2023/01/30 08:29:50;;;;;;;;;13.75;12.00;;;;;7.14;73.98;101827.13;6271128;22;45466;-71
2023/01/30 08:32:16;;;;;;;;;20.00;16.00;;;;;7.14;74.01;101835.78;6270937;22;45534;-72
2023/01/30 08:34:41;;;;;;;;;19.00;16.25;;;;;7.17;74.01;101829.63;6271160;22;45931;-71
2023/01/30 08:40:28;;;;;;;;;15.00;14.00;;;;;7.20;73.75;101839.91;6271295;22;45607;-72
2023/01/30 08:42:53;;;;;;;;;20.75;14.50;;;;;7.13;73.99;101828.88;6270740;22;45650;-71
2023/01/30 08:45:20;;;;;;;;;23.50;18.00;;;;;7.23;73.79;101839.81;6271532;22;45581;-72
2023/01/30 08:47:45;;;;;;;;;20.50;17.75;;;;;7.26;74.05;101852.72;6270747;22;45617;-71
2023/01/30 08:50:10;;;;;;;;;20.00;15.25;;;;;7.29;73.55;101847.38;6271602;22;45622;-71
2023/01/30 08:52:36;;;;;;;;;16.75;13.75;;;;;7.30;73.54;101841.28;6270593;22;46205;-72
2023/01/30 08:55:01;;;;;;;;;16.00;14.75;;;;;7.25;73.63;101830.16;6270175;22;45902;-73
2023/01/30 08:57:27;;;;;;;;;14.25;13.00;;;;;7.32;73.30;101844.69;6271285;22;45593;-72
2023/01/30 08:59:52;;;;;;;;;20.00;14.50;;;;;7.32;73.60;101849.03;6271468;22;45560;-72
2023/01/30 09:02:17;;;;;;;;;18.00;16.00;;;;;7.33;73.59;101858.56;6270783;22;47146;-71
2023/01/30 09:04:43;;;;;;;;;20.25;15.25;;;;;7.32;73.37;101836.00;6270908;22;46003;-73
2023/01/30 09:10:30;;;;;;;;;17.50;13.25;;;;;7.38;73.44;101873.13;6271078;22;45480;-73
2023/01/30 09:12:56;;;;;;;;;19.75;16.00;;;;;7.40;73.58;101871.28;6270174;22;46757;-73
2023/01/30 09:15:21;;;;;;;;;18.00;17.00;;;;;7.42;73.46;101869.50;6270213;22;45958;-73
2023/01/30 09:17:46;;;;;;;;;16.50;15.25;;;;;7.42;73.55;101874.72;6270463;22;45515;-73
2023/01/30 09:20:12;;;;;;;;;20.00;17.75;;;;;7.42;73.57;101869.50;6271464;22;45599;-74
2023/01/30 09:26:43;;;;;;;;;19.00;14.00;;;;;7.44;73.59;101867.69;6268227;22;46164;-74
2023/01/30 09:29:08;;;;;;;;;17.00;14.25;;;;;7.46;73.74;101868.47;6270680;22;45836;-75
2023/01/30 09:31:34;;;;;;;;;19.75;16.25;;;;;7.49;73.83;101863.16;6270683;22;45828;-72
2023/01/30 09:33:59;;;;;;;;;18.75;12.25;;;;;7.52;73.58;101864.78;6270380;22;47385;-73
2023/01/30 09:36:24;;;;;;;;;18.50;17.75;;;;;7.57;73.64;101870.66;6270170;22;46919;-72
2023/01/30 09:38:50;;;;;;;;;14.50;13.00;;;;;7.62;73.25;101875.69;6270441;22;45448;-71
2023/01/30 09:41:47;;;;;;;;;17.25;14.75;;;;;7.64;73.44;101866.06;6271298;22;45692;-71
2023/01/30 09:44:45;;;;;;;;;18.75;16.00;;;;;7.63;73.49;101848.72;6269400;22;47553;-71
2023/01/30 09:47:18;;;;;;;;;14.00;14.00;;;;;7.68;73.76;101849.38;6272284;22;45615;-72
2023/01/30 09:50:02;;;;;;;;;22.25;17.50;;;;;7.76;73.75;101863.84;6271602;22;45704;-71
2023/01/30 09:52:56;;;;;;;;;14.50;12.00;;;;;7.77;73.90;101864.69;6244595;22;45956;-72
2023/01/30 09:55:25;;;;;;;;;22.25;19.25;;;;;7.76;74.01;101861.22;6244002;22;48998;-71
2023/01/30 09:57:51;;;;;;;;;17.00;14.50;;;;;7.73;74.05;101860.47;6244144;22;48144;-71
2023/01/30 10:00:29;;;;;;;;;16.50;13.50;;;;;7.78;74.01;101863.75;6271622;22;45819;-71
2023/01/30 10:03:17;;;;;;;;;16.00;13.00;;;;;7.80;74.12;101864.56;6244604;22;45705;-71
2023/01/30 10:09:14;;;;;;;;;17.00;15.25;;;;;7.74;74.52;101881.28;6272249;22;45781;-73
2023/01/30 10:12:00;;;;;;;;;10.75;10.75;;;;;7.73;74.40;101879.59;6271710;22;45555;-74
2023/01/30 10:14:48;;;;;;;;;10.00;10.00;;;;;7.75;74.74;101877.78;6272080;22;45499;-74
2023/01/30 10:17:41;;;;;;;;;17.50;16.50;;;;;7.77;74.91;101886.41;6147579;23;46654;-74
2023/01/30 10:20:39;;;;;;;;;19.00;15.00;;;;;7.78;75.10;101876.78;6147442;23;46178;-72
2023/01/30 10:26:27;;;;;;;;;17.50;14.00;;;;;7.82;75.20;101900.13;6169104;23;45542;-71
2023/01/30 10:29:30;;;;;;;;;18.50;17.25;;;;;7.88;75.29;101886.00;6177417;23;46092;-74
2023/01/30 10:32:03;;;;;;;;;19.00;17.00;;;;;7.97;74.98;101893.44;6176661;23;46048;-74
2023/01/30 10:34:39;;;;;;;;;14.25;13.25;;;;;8.05;74.87;101893.13;6177613;23;45977;-72
2023/01/30 10:40:36;;;;;;;;;19.25;15.25;;;;;8.15;75.00;101891.88;6177400;23;45583;-72
2023/01/30 10:43:37;;;;;;;;;16.25;14.00;;;;;8.23;74.71;101892.38;6178320;23;45682;-73
2023/01/30 10:46:02;;;;;;;;;12.00;10.00;;;;;8.28;74.62;101878.25;6059410;23;45625;-72
2023/01/30 10:48:46;;;;;;;;;13.50;12.50;;;;;8.31;74.84;101866.88;6059278;23;45678;-73
2023/01/30 10:58:10;;;;;;;;;12.50;10.00;;;;;8.39;74.36;101865.63;6117771;23;45821;-72
2023/01/30 11:00:55;;;;;;;;;18.75;14.50;;;;;8.48;74.29;101869.59;6118402;23;45549;-73
2023/01/30 11:03:34;;;;;;;;;18.50;14.75;;;;;8.56;74.51;101867.53;6117644;23;46431;-74
2023/01/30 11:06:10;;;;;;;;;6.00;4.00;;;;;8.62;74.08;101874.25;6117828;23;46361;-74
2023/01/30 11:08:36;;;;;;;;;10.00;9.00;;;;;8.60;74.26;101866.47;6117993;23;45698;-71
2023/01/30 11:11:21;;;;;;;;;12.75;10.50;;;;;8.65;74.35;101854.06;6117849;23;45668;-71
2023/01/30 11:13:46;;;;;;;;;11.75;10.50;;;;;8.69;74.03;101863.47;6117635;23;47629;-73
2023/01/30 11:16:12;;;;;;;;;10.00;9.00;;;;;8.71;74.17;101861.63;6117766;23;46277;-74
2023/01/30 11:18:46;;;;;;;;;12.00;10.00;;;;;8.72;73.98;101865.09;6117137;23;45605;-72
2023/01/30 11:21:28;;;;;;;;;11.75;9.25;;;;;8.84;73.91;101867.19;6169145;22;45937;-74
2023/01/30 11:23:54;;;;;;;;;12.50;10.00;;;;;8.91;74.07;101860.75;6271044;22;46389;-73
2023/01/30 11:26:34;;;;;;;;;9.25;6.75;;;;;8.98;73.65;101853.50;6271286;22;46295;-72
2023/01/30 11:29:22;;;;;;;;;7.00;7.00;;;;;9.06;73.57;101848.81;6243763;22;46121;-72
2023/01/30 11:31:51;;;;;;;;;11.25;10.00;;;;;9.09;73.39;101848.66;6271313;22;45444;-72
2023/01/30 11:34:19;;;;;;;;;8.00;7.00;;;;;9.09;73.38;101844.28;6271276;22;47256;-71
2023/01/30 11:40:24;;;;;;;;;11.00;9.00;;;;;9.15;73.21;101854.47;6271726;22;45597;-73
2023/01/30 11:43:10;;;;;;;;;5.00;5.00;;;;;9.17;73.20;101854.41;6271687;22;45556;-71
2023/01/30 11:45:39;;;;;;;;;9.00;8.50;;;;;9.15;73.08;101836.16;6270620;22;47325;-70
2023/01/30 11:48:15;;;;;;;;;17.50;11.00;;;;;9.20;73.23;101842.03;6271736;22;46027;-69
2023/01/30 11:50:43;;;;;;;;;10.00;9.50;;;;;9.22;72.79;101832.34;6271266;22;45500;-72
2023/01/30 11:56:51;;;;;;;;;9.75;7.50;;;;;9.24;72.85;101835.72;6271773;22;45523;-71
2023/01/30 11:59:28;;;;;;;;;9.50;7.75;;;;;9.24;73.18;101837.50;6271250;22;46306;-70
2023/01/30 12:02:18;;;;;;;;;11.00;7.75;;;;;9.10;73.14;101813.75;6271321;22;45692;-73
2023/01/30 12:04:46;;;;;;;;;12.00;10.00;;;;;9.25;72.94;101828.72;6271444;22;45819;-71
2023/01/30 12:07:22;;;;;;;;;11.00;10.00;;;;;9.26;73.16;101830.44;6270443;22;47028;-70
2023/01/30 12:09:49;;;;;;;;;14.50;9.50;;;;;9.30;73.21;101820.66;6271367;22;46136;-72
2023/01/30 12:12:35;;;;;;;;;7.00;6.25;;;;;9.33;72.90;101831.00;6271469;22;45663;-72
2023/01/30 12:15:19;;;;;;;;;10.00;9.50;;;;;9.35;72.74;101814.31;6271853;22;45710;-68
2023/01/30 12:17:53;;;;;;;;;7.50;6.75;;;;;9.36;72.96;101808.16;6270700;22;47654;-73
2023/01/30 12:20:24;;;;;;;;;7.75;6.25;;;;;9.39;73.01;101818.50;6271063;22;47026;-74
2023/01/30 12:23:18;;;;;;;;;10.50;8.75;;;;;9.38;72.78;101808.09;6270850;22;45460;-70
2023/01/30 12:25:58;;;;;;;;;10.00;6.75;;;;;9.39;73.06;101809.81;6133664;23;45942;-74
2023/01/30 12:28:40;;;;;;;;;9.25;6.50;;;;;9.41;72.75;101815.78;6176444;23;47865;-72
2023/01/30 12:31:21;;;;;;;;;8.75;7.00;;;;;9.37;72.84;101807.25;6176672;23;46058;-72
2023/01/30 12:33:48;;;;;;;;;9.00;7.50;;;;;9.40;73.18;101801.00;6177120;23;45642;-73
2023/01/30 12:36:22;;;;;;;;;6.75;6.00;;;;;9.33;72.87;101779.56;6177171;23;45566;-72
2023/01/30 12:39:13;;;;;;;;;7.00;5.75;;;;;9.43;73.15;101787.81;6176218;23;47222;-72
2023/01/30 12:41:44;;;;;;;;;9.75;6.75;;;;;9.45;73.12;101809.50;6176413;23;47329;-72
2023/01/30 12:44:22;;;;;;;;;8.50;8.00;;;;;9.46;72.99;101790.25;6176832;23;45881;-72
2023/01/30 12:47:45;;;;;;;;;9.50;7.25;;;;;9.48;73.06;101785.81;6177098;23;45620;-71
2023/01/30 12:50:34;;;;;;;;;6.75;5.00;;;;;9.50;73.13;101786.59;6054737;23;47165;-73
2023/01/30 12:56:32;;;;;;;;;10.00;8.50;;;;;9.61;73.20;101777.28;6058473;23;45812;-71
2023/01/30 12:59:06;;;;;;;;;8.50;8.25;;;;;9.68;72.87;101770.00;6058621;23;45748;-70
2023/01/30 13:01:49;;;;;;;;;9.50;6.25;;;;;9.74;72.88;101767.09;6064476;23;46430;-72
2023/01/30 13:04:41;;;;;;;;;8.25;7.00;;;;;9.81;72.56;101765.88;6146286;23;48151;-72
2023/01/30 13:14:06;;;;;;;;;12.25;9.75;;;;;9.93;72.55;101757.41;6146588;23;45655;-72
2023/01/30 13:16:56;;;;;;;;;8.00;7.25;;;;;9.92;72.57;101744.41;6146901;23;46205;-72
2023/01/30 13:19:45;;;;;;;;;8.00;5.25;;;;;10.01;72.41;101744.78;6147810;23;45924;-74
2023/01/30 13:22:22;;;;;;;;;6.75;6.00;;;;;10.05;72.13;101753.31;6148018;23;45671;-73
2023/01/30 13:25:00;;;;;;;;;10.50;7.00;;;;;10.04;72.16;101752.47;6178383;22;46602;-73
2023/01/30 13:27:28;;;;;;;;;10.00;8.50;;;;;10.04;72.23;101742.00;6272584;22;46161;-72
2023/01/30 13:29:54;;;;;;;;;8.50;7.75;;;;;10.02;72.30;101743.00;6271919;22;45582;-72
2023/01/30 13:32:37;;;;;;;;;9.00;8.00;;;;;10.06;72.16;101744.53;6272001;22;45452;-71